<?xml version="1.0" encoding="UTF-8" standalone="no" ?>
<gpx xmlns="http://www.topografix.com/GPX/1/1" xmlns:xsi="http://www.w3.org/2001/XMLSchema-instance" xsi:schemaLocation="http://www.topografix.com/GPX/1/1 http://www.topografix.com/GPX/1/1/gpx.xsd" version="1.1" creator="VisuGPX - https://www.visugpx.com">
  <metadata>
    <name>gr70 etape4</name>
    <desc><![CDATA[4 première étape]]></desc>
  </metadata>
  <trk>
    <name><![CDATA[GR70 Chemin de Stevenson]]></name>
    <trkseg>
      <trkpt lat="45.04348" lon="3.88261">
        <ele>643.377</ele>
        <time>2016-06-07T16:50:13Z</time>
      </trkpt>
      <trkpt lat="45.04332" lon="3.88334">
        <ele>640.961</ele>
        <time>2016-06-07T16:50:33Z</time>
      </trkpt>
      <trkpt lat="45.04324" lon="3.88386">
        <ele>637.927</ele>
        <time>2016-06-07T16:50:53Z</time>
      </trkpt>
      <trkpt lat="45.04293" lon="3.88457">
        <ele>635.208</ele>
        <time>2016-06-07T16:51:13Z</time>
      </trkpt>
      <trkpt lat="45.04297" lon="3.88543">
        <ele>636.37</ele>
        <time>2016-06-07T16:51:33Z</time>
      </trkpt>
      <trkpt lat="45.04213" lon="3.8856">
        <ele>624.951</ele>
        <time>2016-06-07T16:51:53Z</time>
      </trkpt>
      <trkpt lat="45.04219" lon="3.88698">
        <ele>624.892</ele>
        <time>2016-06-07T16:52:13Z</time>
      </trkpt>
      <trkpt lat="45.04134" lon="3.88772">
        <ele>624.46</ele>
        <time>2016-06-07T16:52:33Z</time>
      </trkpt>
      <trkpt lat="45.04115" lon="3.88853">
        <ele>624.898</ele>
        <time>2016-06-07T16:52:53Z</time>
      </trkpt>
      <trkpt lat="45.04108" lon="3.88948">
        <ele>629.61</ele>
        <time>2016-06-07T16:53:13Z</time>
      </trkpt>
      <trkpt lat="45.04126" lon="3.89069">
        <ele>637.66</ele>
        <time>2016-06-07T16:53:33Z</time>
      </trkpt>
      <trkpt lat="45.04152" lon="3.89177">
        <ele>643.951</ele>
        <time>2016-06-07T16:53:53Z</time>
      </trkpt>
      <trkpt lat="45.04081" lon="3.89258">
        <ele>654.463</ele>
        <time>2016-06-07T16:54:13Z</time>
      </trkpt>
      <trkpt lat="45.04044" lon="3.89336">
        <ele>660.044</ele>
        <time>2016-06-07T16:54:33Z</time>
      </trkpt>
      <trkpt lat="45.04029" lon="3.89438">
        <ele>669.218</ele>
        <time>2016-06-07T16:54:53Z</time>
      </trkpt>
      <trkpt lat="45.03995" lon="3.89564">
        <ele>673.908</ele>
        <time>2016-06-07T16:55:13Z</time>
      </trkpt>
      <trkpt lat="45.03939" lon="3.89601">
        <ele>684.399</ele>
        <time>2016-06-07T16:55:33Z</time>
      </trkpt>
      <trkpt lat="45.03877" lon="3.89677">
        <ele>696.03</ele>
        <time>2016-06-07T16:55:53Z</time>
      </trkpt>
      <trkpt lat="45.03872" lon="3.89703">
        <ele>699.151</ele>
        <time>2016-06-07T16:56:13Z</time>
      </trkpt>
      <trkpt lat="45.03764" lon="3.89698">
        <ele>703.829</ele>
        <time>2016-06-07T16:56:33Z</time>
      </trkpt>
      <trkpt lat="45.03754" lon="3.89709">
        <ele>706.417</ele>
        <time>2016-06-07T16:56:53Z</time>
      </trkpt>
      <trkpt lat="45.03747" lon="3.89735">
        <ele>708.419</ele>
        <time>2016-06-07T16:57:13Z</time>
      </trkpt>
      <trkpt lat="45.03718" lon="3.89768">
        <ele>711.699</ele>
        <time>2016-06-07T16:57:33Z</time>
      </trkpt>
      <trkpt lat="45.03673" lon="3.898">
        <ele>724.09</ele>
        <time>2016-06-07T16:57:53Z</time>
      </trkpt>
      <trkpt lat="45.03606" lon="3.89862">
        <ele>741.652</ele>
        <time>2016-06-07T16:58:13Z</time>
      </trkpt>
      <trkpt lat="45.03567" lon="3.89907">
        <ele>749.153</ele>
        <time>2016-06-07T16:58:33Z</time>
      </trkpt>
      <trkpt lat="45.03554" lon="3.89934">
        <ele>754.008</ele>
        <time>2016-06-07T16:58:53Z</time>
      </trkpt>
      <trkpt lat="45.03541" lon="3.89997">
        <ele>757.608</ele>
        <time>2016-06-07T16:59:13Z</time>
      </trkpt>
      <trkpt lat="45.0353" lon="3.90021">
        <ele>761.878</ele>
        <time>2016-06-07T16:59:33Z</time>
      </trkpt>
      <trkpt lat="45.03529" lon="3.9004">
        <ele>763.589</ele>
        <time>2016-06-07T16:59:53Z</time>
      </trkpt>
      <trkpt lat="45.03497" lon="3.9007">
        <ele>772.78</ele>
        <time>2016-06-07T17:00:13Z</time>
      </trkpt>
      <trkpt lat="45.03483" lon="3.90116">
        <ele>777.848</ele>
        <time>2016-06-07T17:00:33Z</time>
      </trkpt>
      <trkpt lat="45.03367" lon="3.90157">
        <ele>780.036</ele>
        <time>2016-06-07T17:00:53Z</time>
      </trkpt>
      <trkpt lat="45.03307" lon="3.90205">
        <ele>776.818</ele>
        <time>2016-06-07T17:01:13Z</time>
      </trkpt>
      <trkpt lat="45.03277" lon="3.90186">
        <ele>774.258</ele>
        <time>2016-06-07T17:01:33Z</time>
      </trkpt>
      <trkpt lat="45.03264" lon="3.90175">
        <ele>773.169</ele>
        <time>2016-06-07T17:01:53Z</time>
      </trkpt>
      <trkpt lat="45.03247" lon="3.90178">
        <ele>770.828</ele>
        <time>2016-06-07T17:02:13Z</time>
      </trkpt>
      <trkpt lat="45.03233" lon="3.90186">
        <ele>768.289</ele>
        <time>2016-06-07T17:02:33Z</time>
      </trkpt>
      <trkpt lat="45.03219" lon="3.90212">
        <ele>764.217</ele>
        <time>2016-06-07T17:02:53Z</time>
      </trkpt>
      <trkpt lat="45.03217" lon="3.90242">
        <ele>761.508</ele>
        <time>2016-06-07T17:03:13Z</time>
      </trkpt>
      <trkpt lat="45.03209" lon="3.90257">
        <ele>758.635</ele>
        <time>2016-06-07T17:03:33Z</time>
      </trkpt>
      <trkpt lat="45.03165" lon="3.90266">
        <ele>754.426</ele>
        <time>2016-06-07T17:03:53Z</time>
      </trkpt>
      <trkpt lat="45.03153" lon="3.90282">
        <ele>753.747</ele>
        <time>2016-06-07T17:04:13Z</time>
      </trkpt>
      <trkpt lat="45.03152" lon="3.90308">
        <ele>752.045</ele>
        <time>2016-06-07T17:04:33Z</time>
      </trkpt>
      <trkpt lat="45.03173" lon="3.90468">
        <ele>749.373</ele>
        <time>2016-06-07T17:04:53Z</time>
      </trkpt>
      <trkpt lat="45.03171" lon="3.90542">
        <ele>746.865</ele>
        <time>2016-06-07T17:05:13Z</time>
      </trkpt>
      <trkpt lat="45.03088" lon="3.90553">
        <ele>745.975</ele>
        <time>2019-03-25T13:31:51Z</time>
      </trkpt>
      <trkpt lat="45.03115" lon="3.90699">
        <ele>755.396</ele>
        <time>2016-06-07T17:05:53Z</time>
      </trkpt>
      <trkpt lat="45.0307" lon="3.90737">
        <ele>755.822</ele>
        <time>2016-06-07T17:06:13Z</time>
      </trkpt>
      <trkpt lat="45.03032" lon="3.90747">
        <ele>758.362</ele>
        <time>2016-06-07T17:06:33Z</time>
      </trkpt>
      <trkpt lat="45.03004" lon="3.90769">
        <ele>761.808</ele>
        <time>2016-06-07T17:06:53Z</time>
      </trkpt>
      <trkpt lat="45.02984" lon="3.90802">
        <ele>765.808</ele>
        <time>2016-06-07T17:07:13Z</time>
      </trkpt>
      <trkpt lat="45.02965" lon="3.90826">
        <ele>769.565</ele>
        <time>2016-06-07T17:07:33Z</time>
      </trkpt>
      <trkpt lat="45.02938" lon="3.90877">
        <ele>779.256</ele>
        <time>2016-06-07T17:07:53Z</time>
      </trkpt>
      <trkpt lat="45.02909" lon="3.90903">
        <ele>786.527</ele>
        <time>2016-06-07T17:08:13Z</time>
      </trkpt>
      <trkpt lat="45.02884" lon="3.90913">
        <ele>791.385</ele>
        <time>2016-06-07T17:08:33Z</time>
      </trkpt>
      <trkpt lat="45.0285" lon="3.90942">
        <ele>798.013</ele>
        <time>2016-06-07T17:08:53Z</time>
      </trkpt>
      <trkpt lat="45.02807" lon="3.90967">
        <ele>805.295</ele>
        <time>2016-06-07T17:09:13Z</time>
      </trkpt>
      <trkpt lat="45.02742" lon="3.90991">
        <ele>810.835</ele>
        <time>2016-06-07T17:09:33Z</time>
      </trkpt>
      <trkpt lat="45.02723" lon="3.91013">
        <ele>814.036</ele>
        <time>2016-06-07T17:09:53Z</time>
      </trkpt>
      <trkpt lat="45.02703" lon="3.91016">
        <ele>814.418</ele>
        <time>2016-06-07T17:10:13Z</time>
      </trkpt>
      <trkpt lat="45.02671" lon="3.91013">
        <ele>814.898</ele>
        <time>2016-06-07T17:10:33Z</time>
      </trkpt>
      <trkpt lat="45.02617" lon="3.91014">
        <ele>817.617</ele>
        <time>2016-06-07T17:10:53Z</time>
      </trkpt>
      <trkpt lat="45.02565" lon="3.91026">
        <ele>822.208</ele>
        <time>2016-06-07T17:11:13Z</time>
      </trkpt>
      <trkpt lat="45.02516" lon="3.91048">
        <ele>825.024</ele>
        <time>2016-06-07T17:11:33Z</time>
      </trkpt>
      <trkpt lat="45.02504" lon="3.91059">
        <ele>825.095</ele>
        <time>2016-06-07T17:11:53Z</time>
      </trkpt>
      <trkpt lat="45.02443" lon="3.91051">
        <ele>826.116</ele>
        <time>2016-06-07T17:12:13Z</time>
      </trkpt>
      <trkpt lat="45.02391" lon="3.91066">
        <ele>829.574</ele>
        <time>2016-06-07T17:12:33Z</time>
      </trkpt>
      <trkpt lat="45.02362" lon="3.91091">
        <ele>830.082</ele>
        <time>2016-06-07T17:12:53Z</time>
      </trkpt>
      <trkpt lat="45.02343" lon="3.91098">
        <ele>830.384</ele>
        <time>2016-06-07T17:13:13Z</time>
      </trkpt>
      <trkpt lat="45.023" lon="3.9113">
        <ele>831.114</ele>
        <time>2016-06-07T17:13:33Z</time>
      </trkpt>
      <trkpt lat="45.02259" lon="3.91148">
        <ele>830.855</ele>
        <time>2016-06-07T17:13:53Z</time>
      </trkpt>
      <trkpt lat="45.02184" lon="3.91204">
        <ele>829.163</ele>
        <time>2016-06-07T17:14:13Z</time>
      </trkpt>
      <trkpt lat="45.02094" lon="3.91332">
        <ele>824.844</ele>
        <time>2016-06-07T17:14:33Z</time>
      </trkpt>
      <trkpt lat="45.02031" lon="3.91333">
        <ele>818.418</ele>
        <time>2016-06-07T17:14:53Z</time>
      </trkpt>
      <trkpt lat="45.01988" lon="3.9135">
        <ele>813.908</ele>
        <time>2016-06-07T17:15:13Z</time>
      </trkpt>
      <trkpt lat="45.01883" lon="3.91387">
        <ele>800.999</ele>
        <time>2016-06-07T17:15:33Z</time>
      </trkpt>
      <trkpt lat="45.01808" lon="3.91399">
        <ele>799.09</ele>
        <time>2016-06-07T17:15:53Z</time>
      </trkpt>
      <trkpt lat="45.01768" lon="3.9141">
        <ele>797.231</ele>
        <time>2016-06-07T17:16:13Z</time>
      </trkpt>
      <trkpt lat="45.01728" lon="3.91414">
        <ele>795.299</ele>
        <time>2016-06-07T17:16:33Z</time>
      </trkpt>
      <trkpt lat="45.017" lon="3.91429">
        <ele>794.627</ele>
        <time>2016-06-07T17:16:53Z</time>
      </trkpt>
      <trkpt lat="45.01665" lon="3.91462">
        <ele>793.019</ele>
        <time>2016-06-07T17:17:13Z</time>
      </trkpt>
      <trkpt lat="45.01624" lon="3.91484">
        <ele>790.729</ele>
        <time>2016-06-07T17:17:33Z</time>
      </trkpt>
      <trkpt lat="45.01595" lon="3.91486">
        <ele>790.06</ele>
        <time>2016-06-07T17:17:53Z</time>
      </trkpt>
      <trkpt lat="45.01589" lon="3.91458">
        <ele>788.837</ele>
        <time>2016-06-07T17:18:13Z</time>
      </trkpt>
      <trkpt lat="45.01565" lon="3.91389">
        <ele>786.349</ele>
        <time>2016-06-07T17:18:33Z</time>
      </trkpt>
      <trkpt lat="45.01553" lon="3.91365">
        <ele>786.013</ele>
        <time>2016-06-07T17:18:53Z</time>
      </trkpt>
      <trkpt lat="45.01536" lon="3.91361">
        <ele>786.008</ele>
        <time>2016-06-07T17:19:13Z</time>
      </trkpt>
      <trkpt lat="45.01505" lon="3.91382">
        <ele>786.076</ele>
        <time>2016-06-07T17:19:33Z</time>
      </trkpt>
      <trkpt lat="45.01463" lon="3.91374">
        <ele>784.237</ele>
        <time>2016-06-07T17:19:53Z</time>
      </trkpt>
      <trkpt lat="45.0142" lon="3.91343">
        <ele>783.678</ele>
        <time>2016-06-07T17:20:13Z</time>
      </trkpt>
      <trkpt lat="45.01409" lon="3.9135">
        <ele>783.616</ele>
        <time>2016-06-07T17:20:33Z</time>
      </trkpt>
      <trkpt lat="45.01395" lon="3.91379">
        <ele>784.364</ele>
        <time>2016-06-07T17:20:53Z</time>
      </trkpt>
      <trkpt lat="45.01365" lon="3.91387">
        <ele>784.966</ele>
        <time>2016-06-07T17:21:13Z</time>
      </trkpt>
      <trkpt lat="45.01343" lon="3.91408">
        <ele>784.136</ele>
        <time>2016-06-07T17:21:33Z</time>
      </trkpt>
      <trkpt lat="45.01332" lon="3.91362">
        <ele>784.057</ele>
        <time>2016-06-07T17:21:53Z</time>
      </trkpt>
      <trkpt lat="45.01306" lon="3.91283">
        <ele>788.842</ele>
        <time>2016-06-07T17:22:13Z</time>
      </trkpt>
      <trkpt lat="45.013" lon="3.91234">
        <ele>788.222</ele>
        <time>2016-06-07T17:22:33Z</time>
      </trkpt>
      <trkpt lat="45.01343" lon="3.91008">
        <ele>790.114</ele>
        <time>2016-06-07T17:22:53Z</time>
      </trkpt>
      <trkpt lat="45.01341" lon="3.90938">
        <ele>794.608</ele>
        <time>2016-06-07T17:23:13Z</time>
      </trkpt>
      <trkpt lat="45.0135" lon="3.90898">
        <ele>797.727</ele>
        <time>2016-06-07T17:23:33Z</time>
      </trkpt>
      <trkpt lat="45.01349" lon="3.90881">
        <ele>799.388</ele>
        <time>2016-06-07T17:23:53Z</time>
      </trkpt>
      <trkpt lat="45.01336" lon="3.90866">
        <ele>798.939</ele>
        <time>2016-06-07T17:24:13Z</time>
      </trkpt>
      <trkpt lat="45.01282" lon="3.90757">
        <ele>807.577</ele>
        <time>2016-06-07T17:24:33Z</time>
      </trkpt>
      <trkpt lat="45.01249" lon="3.90705">
        <ele>807.065</ele>
        <time>2016-06-07T17:24:53Z</time>
      </trkpt>
      <trkpt lat="45.01242" lon="3.9067">
        <ele>808.277</ele>
        <time>2016-06-07T17:25:13Z</time>
      </trkpt>
      <trkpt lat="45.01228" lon="3.90678">
        <ele>808.447</ele>
        <time>2016-06-07T17:25:33Z</time>
      </trkpt>
      <trkpt lat="45.01138" lon="3.90785">
        <ele>804.588</ele>
        <time>2016-06-07T17:25:53Z</time>
      </trkpt>
      <trkpt lat="45.01087" lon="3.90907">
        <ele>802.387</ele>
        <time>2016-06-07T17:26:13Z</time>
      </trkpt>
      <trkpt lat="45.01048" lon="3.91014">
        <ele>797.742</ele>
        <time>2016-06-07T17:26:33Z</time>
      </trkpt>
      <trkpt lat="45.01005" lon="3.91091">
        <ele>792.426</ele>
        <time>2016-06-07T17:26:53Z</time>
      </trkpt>
      <trkpt lat="45.00986" lon="3.91108">
        <ele>788.808</ele>
        <time>2016-06-07T17:27:13Z</time>
      </trkpt>
      <trkpt lat="45.00967" lon="3.91106">
        <ele>787.441</ele>
        <time>2016-06-07T17:27:33Z</time>
      </trkpt>
      <trkpt lat="45.00946" lon="3.91095">
        <ele>788.082</ele>
        <time>2016-06-07T17:27:53Z</time>
      </trkpt>
      <trkpt lat="45.00906" lon="3.91074">
        <ele>788.063</ele>
        <time>2016-06-07T17:28:13Z</time>
      </trkpt>
      <trkpt lat="45.00861" lon="3.91062">
        <ele>784.281</ele>
        <time>2016-06-07T17:28:33Z</time>
      </trkpt>
      <trkpt lat="45.0077" lon="3.91062">
        <ele>769.279</ele>
        <time>2016-06-07T17:28:53Z</time>
      </trkpt>
      <trkpt lat="45.00726" lon="3.91075">
        <ele>756.431</ele>
        <time>2016-06-07T17:29:13Z</time>
      </trkpt>
      <trkpt lat="45.0061" lon="3.9119">
        <ele>743.781</ele>
        <time>2016-06-07T17:29:33Z</time>
      </trkpt>
      <trkpt lat="45.0061" lon="3.91221">
        <ele>740.162</ele>
        <time>2016-06-07T17:29:53Z</time>
      </trkpt>
      <trkpt lat="45.00599" lon="3.91234">
        <ele>737.932</ele>
        <time>2016-06-07T17:30:13Z</time>
      </trkpt>
      <trkpt lat="45.00573" lon="3.91239">
        <ele>735.092</ele>
        <time>2016-06-07T17:30:33Z</time>
      </trkpt>
      <trkpt lat="45.00553" lon="3.91236">
        <ele>732.311</ele>
        <time>2016-06-07T17:30:53Z</time>
      </trkpt>
      <trkpt lat="45.00506" lon="3.91266">
        <ele>725.208</ele>
        <time>2016-06-07T17:31:13Z</time>
      </trkpt>
      <trkpt lat="45.0047" lon="3.91307">
        <ele>721.956</ele>
        <time>2016-06-07T17:31:33Z</time>
      </trkpt>
      <trkpt lat="45.00457" lon="3.91302">
        <ele>721.527</ele>
        <time>2016-06-07T17:31:53Z</time>
      </trkpt>
      <trkpt lat="45.00437" lon="3.91269">
        <ele>720.688</ele>
        <time>2016-06-07T17:32:13Z</time>
      </trkpt>
      <trkpt lat="45.00412" lon="3.91297">
        <ele>718.996</ele>
        <time>2016-06-07T17:32:33Z</time>
      </trkpt>
      <trkpt lat="45.00384" lon="3.9131">
        <ele>716.044</ele>
        <time>2016-06-07T17:32:53Z</time>
      </trkpt>
      <trkpt lat="45.00365" lon="3.91301">
        <ele>713.636</ele>
        <time>2016-06-07T17:33:13Z</time>
      </trkpt>
      <trkpt lat="45.00347" lon="3.91304">
        <ele>710.576</ele>
        <time>2016-06-07T17:33:33Z</time>
      </trkpt>
      <trkpt lat="45.0032" lon="3.91296">
        <ele>706.647</ele>
        <time>2016-06-07T17:33:53Z</time>
      </trkpt>
      <trkpt lat="45.00307" lon="3.91305">
        <ele>704.235</ele>
        <time>2016-06-07T17:34:13Z</time>
      </trkpt>
      <trkpt lat="45.00307" lon="3.91337">
        <ele>702.386</ele>
        <time>2016-06-07T17:34:33Z</time>
      </trkpt>
      <trkpt lat="45.00314" lon="3.91417">
        <ele>698.214</ele>
        <time>2016-06-07T17:34:53Z</time>
      </trkpt>
      <trkpt lat="45.003" lon="3.91437">
        <ele>694.308</ele>
        <time>2016-06-07T17:35:13Z</time>
      </trkpt>
      <trkpt lat="45.00215" lon="3.915">
        <ele>683.096</ele>
        <time>2016-06-07T17:35:33Z</time>
      </trkpt>
      <trkpt lat="45.00149" lon="3.9154">
        <ele>678.547</ele>
        <time>2016-06-07T17:35:53Z</time>
      </trkpt>
      <trkpt lat="45.00075" lon="3.91578">
        <ele>668.678</ele>
        <time>2016-06-07T17:36:13Z</time>
      </trkpt>
      <trkpt lat="45.00078" lon="3.9159">
        <ele>667.656</ele>
        <time>2016-06-07T17:36:33Z</time>
      </trkpt>
      <trkpt lat="45.001" lon="3.91616">
        <ele>666.864</ele>
        <time>2016-06-07T17:36:53Z</time>
      </trkpt>
      <trkpt lat="45.00108" lon="3.91633">
        <ele>665.526</ele>
        <time>2016-06-07T17:37:13Z</time>
      </trkpt>
      <trkpt lat="45.00101" lon="3.91701">
        <ele>661.026</ele>
        <time>2016-06-07T17:37:33Z</time>
      </trkpt>
      <trkpt lat="44.99969" lon="3.91705">
        <ele>646.827</ele>
        <time>2016-06-07T17:37:53Z</time>
      </trkpt>
      <trkpt lat="44.99942" lon="3.91699">
        <ele>643.398</ele>
        <time>2016-06-07T17:38:13Z</time>
      </trkpt>
      <trkpt lat="44.99919" lon="3.91713">
        <ele>638.815</ele>
        <time>2016-06-07T17:38:33Z</time>
      </trkpt>
      <trkpt lat="44.99886" lon="3.91748">
        <ele>633.426</ele>
        <time>2016-06-07T17:38:53Z</time>
      </trkpt>
      <trkpt lat="44.99874" lon="3.91698">
        <ele>631.908</ele>
        <time>2016-06-07T17:39:13Z</time>
      </trkpt>
      <trkpt lat="44.99748" lon="3.91736">
        <ele>629.312</ele>
        <time>2016-06-07T17:39:33Z</time>
      </trkpt>
      <trkpt lat="44.99716" lon="3.91802">
        <ele>632.263</ele>
        <time>2016-06-07T17:39:53Z</time>
      </trkpt>
      <trkpt lat="44.99683" lon="3.91831">
        <ele>633.094</ele>
        <time>2016-06-07T17:40:13Z</time>
      </trkpt>
      <trkpt lat="44.99636" lon="3.91842">
        <ele>633.032</ele>
        <time>2016-06-07T17:40:33Z</time>
      </trkpt>
      <trkpt lat="44.99571" lon="3.91821">
        <ele>635.34</ele>
        <time>2016-06-07T17:40:53Z</time>
      </trkpt>
      <trkpt lat="44.99491" lon="3.91778">
        <ele>644.932</ele>
        <time>2016-06-07T17:41:13Z</time>
      </trkpt>
      <trkpt lat="44.99472" lon="3.91777">
        <ele>647.182</ele>
        <time>2016-06-07T17:41:33Z</time>
      </trkpt>
      <trkpt lat="44.99462" lon="3.91787">
        <ele>648.413</ele>
        <time>2016-06-07T17:41:53Z</time>
      </trkpt>
      <trkpt lat="44.99437" lon="3.91823">
        <ele>650.134</ele>
        <time>2016-06-07T17:42:13Z</time>
      </trkpt>
      <trkpt lat="44.99365" lon="3.91895">
        <ele>663.855</ele>
        <time>2016-06-07T17:42:33Z</time>
      </trkpt>
      <trkpt lat="44.9932" lon="3.91997">
        <ele>674.31</ele>
        <time>2016-06-07T17:42:53Z</time>
      </trkpt>
      <trkpt lat="44.99273" lon="3.92073">
        <ele>677.408</ele>
        <time>2016-06-07T17:43:13Z</time>
      </trkpt>
      <trkpt lat="44.99179" lon="3.92053">
        <ele>687.466</ele>
        <time>2016-06-07T17:43:33Z</time>
      </trkpt>
      <trkpt lat="44.9916" lon="3.92031">
        <ele>692.497</ele>
        <time>2016-06-07T17:43:53Z</time>
      </trkpt>
      <trkpt lat="44.99132" lon="3.91954">
        <ele>702.338</ele>
        <time>2016-06-07T17:44:13Z</time>
      </trkpt>
      <trkpt lat="44.99066" lon="3.91871">
        <ele>714.596</ele>
        <time>2016-06-07T17:44:33Z</time>
      </trkpt>
      <trkpt lat="44.99058" lon="3.91831">
        <ele>719.674</ele>
        <time>2016-06-07T17:44:53Z</time>
      </trkpt>
      <trkpt lat="44.99076" lon="3.91697">
        <ele>734.136</ele>
        <time>2016-06-07T17:45:13Z</time>
      </trkpt>
      <trkpt lat="44.99028" lon="3.91671">
        <ele>740.576</ele>
        <time>2016-06-07T17:45:33Z</time>
      </trkpt>
      <trkpt lat="44.99029" lon="3.91657">
        <ele>742.077</ele>
        <time>2016-06-07T17:45:53Z</time>
      </trkpt>
      <trkpt lat="44.99093" lon="3.91575">
        <ele>745.042</ele>
        <time>2016-06-07T17:46:13Z</time>
      </trkpt>
      <trkpt lat="44.99091" lon="3.91561">
        <ele>746.222</ele>
        <time>2016-06-07T17:46:33Z</time>
      </trkpt>
      <trkpt lat="44.99" lon="3.91535">
        <ele>759.914</ele>
        <time>2016-06-07T17:46:53Z</time>
      </trkpt>
      <trkpt lat="44.98969" lon="3.91505">
        <ele>767.108</ele>
        <time>2016-06-07T17:47:13Z</time>
      </trkpt>
      <trkpt lat="44.98932" lon="3.91429">
        <ele>776.047</ele>
        <time>2016-06-07T17:47:33Z</time>
      </trkpt>
      <trkpt lat="44.98908" lon="3.91392">
        <ele>776.188</ele>
        <time>2016-06-07T17:47:53Z</time>
      </trkpt>
      <trkpt lat="44.98872" lon="3.91354">
        <ele>775.289</ele>
        <time>2016-06-07T17:48:13Z</time>
      </trkpt>
      <trkpt lat="44.98839" lon="3.91344">
        <ele>777.487</ele>
        <time>2016-06-07T17:48:33Z</time>
      </trkpt>
      <trkpt lat="44.98803" lon="3.91343">
        <ele>782.435</ele>
        <time>2016-06-07T17:48:53Z</time>
      </trkpt>
      <trkpt lat="44.98702" lon="3.9138">
        <ele>789.287</ele>
        <time>2016-06-07T17:49:13Z</time>
      </trkpt>
      <trkpt lat="44.98657" lon="3.91378">
        <ele>792.477</ele>
        <time>2016-06-07T17:49:33Z</time>
      </trkpt>
      <trkpt lat="44.98607" lon="3.91384">
        <ele>801.138</ele>
        <time>2016-06-07T17:49:53Z</time>
      </trkpt>
      <trkpt lat="44.98528" lon="3.91442">
        <ele>809.921</ele>
        <time>2016-06-07T17:50:13Z</time>
      </trkpt>
      <trkpt lat="44.9851" lon="3.91446">
        <ele>811.241</ele>
        <time>2016-06-07T17:50:33Z</time>
      </trkpt>
      <trkpt lat="44.98498" lon="3.91425">
        <ele>812.005</ele>
        <time>2016-06-07T17:50:53Z</time>
      </trkpt>
      <trkpt lat="44.98426" lon="3.91346">
        <ele>808.008</ele>
        <time>2016-06-07T17:51:13Z</time>
      </trkpt>
      <trkpt lat="44.98407" lon="3.9138">
        <ele>808.795</ele>
        <time>2016-06-07T17:51:33Z</time>
      </trkpt>
      <trkpt lat="44.98403" lon="3.9144">
        <ele>810.996</ele>
        <time>2016-06-07T17:51:53Z</time>
      </trkpt>
      <trkpt lat="44.98407" lon="3.9149">
        <ele>812.337</ele>
        <time>2016-06-07T17:52:13Z</time>
      </trkpt>
      <trkpt lat="44.98394" lon="3.91529">
        <ele>813.375</ele>
        <time>2016-06-07T17:52:33Z</time>
      </trkpt>
      <trkpt lat="44.98363" lon="3.9158">
        <ele>816.043</ele>
        <time>2016-06-07T17:52:53Z</time>
      </trkpt>
      <trkpt lat="44.98268" lon="3.91695">
        <ele>822.485</ele>
        <time>2016-06-07T17:53:13Z</time>
      </trkpt>
      <trkpt lat="44.98243" lon="3.91699">
        <ele>826.465</ele>
        <time>2016-06-07T17:53:33Z</time>
      </trkpt>
      <trkpt lat="44.98212" lon="3.91684">
        <ele>831.146</ele>
        <time>2016-06-07T17:53:53Z</time>
      </trkpt>
      <trkpt lat="44.98178" lon="3.91687">
        <ele>833.397</ele>
        <time>2016-06-07T17:54:13Z</time>
      </trkpt>
      <trkpt lat="44.98157" lon="3.91714">
        <ele>835.623</ele>
        <time>2016-06-07T17:54:33Z</time>
      </trkpt>
      <trkpt lat="44.98141" lon="3.91774">
        <ele>839.725</ele>
        <time>2016-06-07T17:54:53Z</time>
      </trkpt>
      <trkpt lat="44.98146" lon="3.91839">
        <ele>839.908</ele>
        <time>2016-06-07T17:55:13Z</time>
      </trkpt>
      <trkpt lat="44.98136" lon="3.91863">
        <ele>842.322</ele>
        <time>2016-06-07T17:55:33Z</time>
      </trkpt>
      <trkpt lat="44.97993" lon="3.92095">
        <ele>855.223</ele>
        <time>2016-06-07T17:55:53Z</time>
      </trkpt>
    </trkseg>
  </trk>
</gpx>